Time;durP1;ratioP1;P1;durP2;ratioP2;P2;SDS_P1;SDS_P2;PMS_P1;PMS_P2;Temp;Humidity;BMP_temperature;BMP_pressure;BME280_temperature;BME280_humidity;BME280_pressure;Samples;Min_cycle;Max_cycle;Signal;HPM_P1;HPM_P2
2023/02/13 00:01:41;;;;;;;18.80;13.20;;;10.60;99.90;;;;;;5073595;28;20228;-84
2023/02/13 00:04:08;;;;;;;20.73;12.60;;;10.60;99.90;;;;;;5076267;28;20692;-76
2023/02/13 00:06:36;;;;;;;17.35;11.95;;;10.60;99.90;;;;;;5073260;28;20227;-78
2023/02/13 00:09:09;;;;;;;15.95;11.95;;;10.60;99.90;;;;;;5070731;28;20221;-85
2023/02/13 00:11:36;;;;;;;18.60;11.82;;;10.60;99.90;;;;;;5068079;28;20222;-83
2023/02/13 00:14:04;;;;;;;14.02;10.65;;;10.60;99.90;;;;;;5079232;28;20216;-85
2023/02/13 00:16:33;;;;;;;12.15;10.60;;;10.60;99.90;;;;;;5077393;28;20219;-84
2023/02/13 00:19:02;;;;;;;12.30;9.57;;;10.60;99.90;;;;;;5073931;28;20224;-85
2023/02/13 00:21:31;;;;;;;16.00;8.88;;;10.60;99.90;;;;;;5072421;28;20228;-77
2023/02/13 00:23:59;;;;;;;9.23;7.60;;;10.60;99.90;;;;;;5072494;28;20305;-77
2023/02/13 00:26:26;;;;;;;14.88;10.23;;;10.60;99.90;;;;;;5071346;28;20315;-77
2023/02/13 00:28:53;;;;;;;10.73;7.57;;;10.60;99.90;;;;;;5071452;28;20235;-77
2023/02/13 00:31:22;;;;;;;10.82;7.55;;;10.60;99.90;;;;;;5073169;28;20282;-77
2023/02/13 00:33:49;;;;;;;10.10;8.40;;;10.60;99.90;;;;;;5082052;28;20295;-84
2023/02/13 00:36:19;;;;;;;13.02;8.02;;;10.60;99.90;;;;;;5083880;28;20212;-84
2023/02/13 00:38:47;;;;;;;12.27;7.22;;;10.60;99.90;;;;;;5089304;28;20250;-83
2023/02/13 00:41:16;;;;;;;9.63;8.02;;;10.60;99.90;;;;;;5083919;28;20306;-84
2023/02/13 00:43:46;;;;;;;14.32;8.25;;;10.60;99.90;;;;;;5067948;28;20216;-84
2023/02/13 00:46:14;;;;;;;9.32;6.93;;;10.60;99.90;;;;;;5044278;28;20249;-84
2023/02/13 00:48:41;;;;;;;9.50;6.22;;;10.60;99.90;;;;;;5054741;28;20370;-84
2023/02/13 00:51:08;;;;;;;7.50;5.57;;;10.60;99.90;;;;;;5053991;28;20227;-77
2023/02/13 00:53:38;;;;;;;8.23;5.60;;;10.60;99.90;;;;;;5054311;28;20278;-77
2023/02/13 00:56:06;;;;;;;5.82;5.18;;;10.60;99.90;;;;;;5053319;28;20298;-84
2023/02/13 00:58:33;;;;;;;6.28;5.20;;;10.60;99.90;;;;;;5054883;28;20308;-84
2023/02/13 01:01:01;;;;;;;6.97;5.13;;;10.50;99.90;;;;;;5053940;28;20608;-84
2023/02/13 01:03:28;;;;;;;5.75;5.03;;;10.60;99.90;;;;;;5053594;28;20216;-84
2023/02/13 01:05:57;;;;;;;7.53;4.70;;;10.50;99.90;;;;;;5058522;28;20223;-84
2023/02/13 01:08:27;;;;;;;8.02;4.35;;;10.50;99.90;;;;;;5055309;28;20217;-84
2023/02/13 01:10:55;;;;;;;5.57;4.43;;;10.50;99.90;;;;;;5054403;28;20224;-84
2023/02/13 01:13:22;;;;;;;5.93;4.40;;;10.50;99.90;;;;;;5056016;28;20220;-84
2023/02/13 01:15:50;;;;;;;7.82;4.38;;;10.50;99.90;;;;;;5054433;28;20259;-84
2023/02/13 01:18:19;;;;;;;5.93;4.43;;;10.50;99.90;;;;;;5054041;28;20303;-77
2023/02/13 01:20:56;;;;;;;5.18;3.95;;;10.50;99.90;;;;;;5051996;28;20240;-77
2023/02/13 01:23:25;;;;;;;4.78;3.80;;;10.50;99.90;;;;;;5054044;28;20224;-77
2023/02/13 01:26:03;;;;;;;3.72;3.13;;;10.40;99.90;;;;;;5053242;28;20285;-78
2023/02/13 01:28:30;;;;;;;5.35;3.67;;;10.40;99.90;;;;;;5056795;28;20543;-84
2023/02/13 01:30:58;;;;;;;4.50;4.10;;;10.40;99.90;;;;;;5057388;28;20224;-77
2023/02/13 01:33:30;;;;;;;4.30;3.60;;;10.40;99.90;;;;;;5054266;28;20225;-78
2023/02/13 01:35:59;;;;;;;3.80;3.45;;;10.40;99.90;;;;;;5060824;28;20220;-84
2023/02/13 01:38:26;;;;;;;5.90;3.80;;;10.40;99.90;;;;;;5055256;28;20252;-77
2023/02/13 01:40:54;;;;;;;4.65;2.88;;;10.40;99.90;;;;;;5054810;28;20224;-84
2023/02/13 01:43:22;;;;;;;3.58;3.25;;;10.30;99.90;;;;;;5055756;28;20231;-84
2023/02/13 01:45:53;;;;;;;4.03;2.75;;;10.30;99.90;;;;;;5054118;28;20225;-77
2023/02/13 01:48:24;;;;;;;3.92;3.63;;;10.30;99.90;;;;;;5053307;28;20224;-77
2023/02/13 01:50:54;;;;;;;4.45;3.40;;;10.30;99.90;;;;;;5054842;28;20228;-84
2023/02/13 01:53:27;;;;;;;3.50;3.20;;;10.30;99.90;;;;;;5053766;28;20296;-84
2023/02/13 01:55:58;;;;;;;2.80;2.55;;;10.30;99.90;;;;;;5073156;28;20224;-85
2023/02/13 01:58:30;;;;;;;4.13;2.75;;;10.30;99.90;;;;;;5073687;28;20243;-84
2023/02/13 02:00:58;;;;;;;3.88;2.30;;;10.30;99.90;;;;;;5072940;28;20600;-84
2023/02/13 02:03:31;;;;;;;3.13;2.38;;;10.30;99.90;;;;;;5074715;28;20254;-84
2023/02/13 02:05:59;;;;;;;4.30;2.58;;;10.30;99.90;;;;;;5073354;28;20227;-77
2023/02/13 02:08:27;;;;;;;5.40;3.08;;;10.30;99.90;;;;;;5073374;28;20231;-84
2023/02/13 02:10:55;;;;;;;2.80;2.60;;;10.30;99.90;;;;;;5072590;28;20235;-77
2023/02/13 02:13:23;;;;;;;4.22;2.75;;;10.30;99.90;;;;;;5072741;28;20219;-77
2023/02/13 02:15:52;;;;;;;3.85;2.60;;;10.30;99.90;;;;;;5072455;28;20228;-77
2023/02/13 02:18:21;;;;;;;2.72;2.50;;;10.30;99.90;;;;;;5072599;28;20224;-84
2023/02/13 02:21:27;;;;;;;4.07;2.53;;;10.30;99.90;;;;;;5072924;28;20232;-84
2023/02/13 02:24:25;;;;;;;3.58;2.95;;;10.30;99.90;;;;;;5072294;28;20274;-84
2023/02/13 02:27:19;;;;;;;3.20;2.70;;;10.30;99.90;;;;;;5072835;28;20220;-84
2023/02/13 02:30:34;;;;;;;6.10;4.10;;;10.30;99.90;;;;;;5072977;28;20232;-84
2023/02/13 02:33:13;;;;;;;3.50;3.05;;;10.20;99.90;;;;;;5010230;28;20540;-77
2023/02/13 02:35:50;;;;;;;4.05;3.65;;;10.20;99.90;;;;;;5070865;28;20281;-77
2023/02/13 02:38:36;;;;;;;4.70;3.55;;;10.20;99.90;;;;;;5073130;28;20555;-77
2023/02/13 02:41:09;;;;;;;3.70;3.40;;;10.20;99.90;;;;;;5073470;28;20681;-84
2023/02/13 02:43:51;;;;;;;4.68;3.88;;;10.20;99.90;;;;;;5073217;28;20259;-84
2023/02/13 02:46:33;;;;;;;4.53;4.13;;;10.20;99.90;;;;;;5063669;28;20231;-77
2023/02/13 02:52:26;;;;;;;6.38;4.10;;;10.20;99.90;;;;;;5072354;28;20556;-84
2023/02/13 02:55:07;;;;;;;5.72;4.40;;;10.10;99.90;;;;;;5062521;28;20314;-84
2023/02/13 03:06:12;;;;;;;4.15;3.75;;;10.10;99.90;;;;;;5051609;28;20220;-78
2023/02/13 03:14:13;;;;;;;6.03;4.20;;;10.10;99.90;;;;;;5073238;28;20239;-85
2023/02/13 03:22:34;;;;;;;6.82;4.97;;;10.10;99.90;;;;;;5072392;28;20230;-83
2023/02/13 03:25:11;;;;;;;7.18;5.00;;;10.00;99.90;;;;;;5073434;28;20228;-77
2023/02/13 03:30:39;;;;;;;4.85;4.35;;;10.00;99.90;;;;;;5075659;28;20255;-76
2023/02/13 03:33:18;;;;;;;4.55;4.13;;;10.00;99.90;;;;;;5075784;28;20519;-76
2023/02/13 03:38:46;;;;;;;6.05;5.07;;;10.00;99.90;;;;;;5074651;28;20243;-76
2023/02/13 03:41:18;;;;;;;8.13;5.43;;;10.00;99.90;;;;;;5075667;28;20727;-76
2023/02/13 03:43:59;;;;;;;6.22;5.47;;;10.00;99.90;;;;;;5075267;28;20231;-76
2023/02/13 03:46:29;;;;;;;6.43;5.43;;;10.00;99.90;;;;;;5074876;28;20358;-84
2023/02/13 03:51:48;;;;;;;6.40;5.28;;;10.00;99.90;;;;;;5074983;28;20771;-84
2023/02/13 03:54:21;;;;;;;9.27;5.63;;;10.00;99.90;;;;;;5073774;28;20239;-85
2023/02/13 03:59:37;;;;;;;6.28;5.63;;;10.00;99.90;;;;;;5075320;28;20239;-77
2023/02/13 04:02:12;;;;;;;6.85;6.25;;;10.00;99.90;;;;;;5057384;28;20239;-77
2023/02/13 04:04:47;;;;;;;6.10;5.50;;;9.90;99.90;;;;;;5074542;28;20302;-84
2023/02/13 04:07:28;;;;;;;10.45;7.25;;;10.00;99.90;;;;;;5075390;28;20269;-77
2023/02/13 04:09:57;;;;;;;10.68;6.50;;;9.90;99.90;;;;;;5074780;28;20615;-77
2023/02/13 04:12:33;;;;;;;8.43;6.45;;;10.00;99.90;;;;;;5074810;28;20273;-77
2023/02/13 04:15:05;;;;;;;7.82;6.32;;;10.00;99.90;;;;;;5074959;28;20230;-84
2023/02/13 04:17:36;;;;;;;8.30;6.82;;;10.00;99.90;;;;;;5075086;28;20327;-84
2023/02/13 04:20:03;;;;;;;9.57;7.38;;;10.00;99.90;;;;;;5075045;28;20318;-83
2023/02/13 04:22:31;;;;;;;8.82;7.93;;;9.90;99.90;;;;;;5074588;28;20681;-77
2023/02/13 04:25:01;;;;;;;8.25;7.30;;;10.00;99.90;;;;;;5073967;28;20223;-84
2023/02/13 04:27:29;;;;;;;7.72;6.47;;;10.00;99.90;;;;;;5074995;28;20215;-77
2023/02/13 04:29:56;;;;;;;11.85;8.27;;;10.00;99.90;;;;;;5073793;28;20706;-76
2023/02/13 04:32:23;;;;;;;8.88;7.75;;;10.00;99.90;;;;;;5074290;28;20289;-76
2023/02/13 04:34:50;;;;;;;8.35;7.55;;;10.00;99.90;;;;;;5074667;28;20224;-78
2023/02/13 04:37:17;;;;;;;16.85;8.38;;;10.00;99.90;;;;;;5074935;28;20293;-77
2023/02/13 04:39:44;;;;;;;9.90;7.50;;;10.00;99.90;;;;;;5074048;28;20293;-84
2023/02/13 04:42:12;;;;;;;10.45;9.35;;;10.00;99.90;;;;;;5075414;28;20250;-84
2023/02/13 04:44:39;;;;;;;10.48;9.35;;;10.00;99.90;;;;;;5074799;28;20224;-77
2023/02/13 04:47:06;;;;;;;12.15;8.63;;;10.00;99.90;;;;;;5074326;28;20224;-84
2023/02/13 04:49:33;;;;;;;12.98;10.93;;;10.00;99.90;;;;;;5074746;28;20292;-77
2023/02/13 04:52:00;;;;;;;10.35;9.18;;;10.00;99.90;;;;;;5073427;28;20227;-77
2023/02/13 04:54:27;;;;;;;10.98;9.75;;;10.00;99.90;;;;;;5073971;28;20302;-78
2023/02/13 04:56:54;;;;;;;9.57;8.27;;;10.00;99.90;;;;;;5074064;28;20236;-84
2023/02/13 04:59:22;;;;;;;10.40;8.80;;;10.00;99.90;;;;;;5073850;28;20282;-78
2023/02/13 05:01:49;;;;;;;10.88;8.52;;;10.00;99.90;;;;;;5073130;28;20596;-77
2023/02/13 05:04:17;;;;;;;11.65;9.68;;;10.00;99.90;;;;;;5074505;28;20231;-77
2023/02/13 05:06:44;;;;;;;11.57;10.40;;;10.00;99.90;;;;;;5073498;28;20303;-83
2023/02/13 05:09:12;;;;;;;11.75;9.27;;;10.00;99.90;;;;;;5074118;28;20231;-77
2023/02/13 05:11:39;;;;;;;14.85;10.45;;;10.00;99.90;;;;;;5072668;28;20212;-78
2023/02/13 05:14:06;;;;;;;14.02;9.63;;;10.00;99.90;;;;;;5073533;28;20220;-84
2023/02/13 05:16:45;;;;;;;12.63;9.93;;;10.00;99.90;;;;;;5074097;28;20273;-85
2023/02/13 05:19:12;;;;;;;12.10;9.32;;;10.00;99.90;;;;;;5073525;28;20250;-77
2023/02/13 05:24:23;;;;;;;10.25;8.82;;;10.00;99.90;;;;;;5074122;28;20290;-78
2023/02/13 05:26:50;;;;;;;9.80;8.43;;;9.90;99.90;;;;;;5073139;28;20228;-77
2023/02/13 05:29:21;;;;;;;11.85;9.77;;;9.90;99.90;;;;;;5073376;28;20220;-77
2023/02/13 05:31:51;;;;;;;10.55;8.55;;;9.90;99.90;;;;;;5072781;28;20212;-77
2023/02/13 05:34:18;;;;;;;10.95;9.35;;;10.00;99.90;;;;;;5073501;28;20224;-84
2023/02/13 05:36:45;;;;;;;9.45;7.75;;;9.90;99.90;;;;;;5073602;28;20285;-84
2023/02/13 05:39:14;;;;;;;8.88;7.95;;;9.90;99.90;;;;;;5073749;28;20231;-84
2023/02/13 05:41:41;;;;;;;10.05;7.43;;;9.90;99.90;;;;;;5073183;28;20692;-84
2023/02/13 05:44:09;;;;;;;9.38;7.40;;;9.90;99.90;;;;;;5073734;28;20219;-84
2023/02/13 05:46:38;;;;;;;7.88;6.93;;;9.90;99.90;;;;;;5073095;28;20234;-84
2023/02/13 05:49:07;;;;;;;9.20;7.97;;;9.90;99.90;;;;;;5073348;28;20220;-84
2023/02/13 05:51:35;;;;;;;10.57;9.05;;;9.90;99.90;;;;;;5072881;28;20223;-85
2023/02/13 05:54:02;;;;;;;8.80;7.03;;;9.90;99.90;;;;;;5073556;28;20254;-84
2023/02/13 05:56:29;;;;;;;7.57;6.55;;;9.90;99.90;;;;;;5073723;28;20220;-84
2023/02/13 05:58:57;;;;;;;8.00;7.10;;;9.90;99.90;;;;;;5073196;28;20318;-84
2023/02/13 06:01:26;;;;;;;8.32;7.22;;;10.00;99.90;;;;;;5073123;28;20330;-84
2023/02/13 06:03:53;;;;;;;11.35;7.95;;;10.00;99.90;;;;;;5072931;28;20231;-84
2023/02/13 06:06:22;;;;;;;9.48;8.02;;;9.90;99.90;;;;;;5064393;28;20216;-84
2023/02/13 06:08:49;;;;;;;9.25;8.25;;;10.00;99.90;;;;;;5072179;28;20699;-84
2023/02/13 06:11:16;;;;;;;7.97;6.90;;;10.00;99.90;;;;;;5073398;28;20236;-84
2023/02/13 06:13:43;;;;;;;8.35;6.90;;;10.00;99.90;;;;;;5073174;28;20303;-84
2023/02/13 06:16:11;;;;;;;7.85;6.85;;;10.00;99.90;;;;;;5073184;28;20751;-84
2023/02/13 06:18:39;;;;;;;7.65;6.47;;;10.00;99.90;;;;;;5073233;28;20269;-84
2023/02/13 06:21:06;;;;;;;7.28;6.20;;;10.00;99.90;;;;;;5073781;28;20228;-84
2023/02/13 06:23:35;;;;;;;7.68;6.97;;;10.00;99.90;;;;;;5073253;28;20666;-84
2023/02/13 06:26:04;;;;;;;8.10;7.30;;;10.00;99.90;;;;;;5072939;28;20239;-76
2023/02/13 06:28:31;;;;;;;6.47;5.88;;;10.00;99.90;;;;;;5073522;28;20685;-84
2023/02/13 06:31:00;;;;;;;6.38;5.68;;;10.10;99.90;;;;;;5072506;28;20232;-84
2023/02/13 06:33:30;;;;;;;7.38;6.00;;;10.10;99.90;;;;;;5072852;28;20224;-84
2023/02/13 06:35:56;;;;;;;7.10;6.00;;;10.10;99.90;;;;;;5072706;28;20238;-84
2023/02/13 06:38:23;;;;;;;7.32;6.22;;;10.10;99.90;;;;;;5073020;28;20305;-84
2023/02/13 06:40:52;;;;;;;6.57;5.88;;;10.10;99.90;;;;;;5072684;28;20285;-77
2023/02/13 06:43:19;;;;;;;6.40;5.80;;;10.10;99.90;;;;;;5072686;28;20300;-77
2023/02/13 06:45:46;;;;;;;7.25;6.55;;;10.10;99.90;;;;;;5072102;28;20219;-77
2023/02/13 06:48:24;;;;;;;8.75;6.78;;;10.10;99.90;;;;;;5062103;28;20617;-76
2023/02/13 06:50:52;;;;;;;7.05;6.38;;;10.10;99.90;;;;;;5071430;28;20757;-76
2023/02/13 06:53:23;;;;;;;8.38;6.68;;;10.10;99.90;;;;;;5072681;28;20235;-76
2023/02/13 06:55:57;;;;;;;7.20;6.05;;;10.10;99.90;;;;;;5072094;28;20330;-78
2023/02/13 06:58:26;;;;;;;7.38;6.47;;;10.10;99.90;;;;;;5072652;28;20653;-84
2023/02/13 07:00:53;;;;;;;7.53;6.25;;;10.10;99.90;;;;;;5066887;28;20228;-84
2023/02/13 07:03:24;;;;;;;6.60;6.05;;;10.10;99.90;;;;;;5076325;28;20224;-84
2023/02/13 07:05:54;;;;;;;6.85;6.15;;;10.10;99.90;;;;;;5076698;28;20226;-83
2023/02/13 07:08:21;;;;;;;7.15;6.45;;;10.20;99.90;;;;;;5076018;28;20220;-84
2023/02/13 07:10:48;;;;;;;7.43;6.55;;;10.20;99.90;;;;;;5068432;28;20231;-83
2023/02/13 07:13:16;;;;;;;6.95;6.25;;;10.20;99.90;;;;;;5076187;28;20224;-77
2023/02/13 07:15:43;;;;;;;7.13;6.40;;;10.20;99.90;;;;;;5076620;28;20227;-84
2023/02/13 07:18:10;;;;;;;8.10;6.57;;;10.20;99.90;;;;;;5075906;28;20297;-77
2023/02/13 07:20:38;;;;;;;5.78;5.28;;;10.20;99.90;;;;;;5076038;28;20224;-77
2023/02/13 07:23:06;;;;;;;7.35;6.53;;;10.20;99.90;;;;;;5075369;28;20549;-78
2023/02/13 07:25:33;;;;;;;5.97;5.47;;;10.20;99.90;;;;;;5075949;28;20220;-83
2023/02/13 07:28:05;;;;;;;8.30;7.47;;;10.20;99.90;;;;;;5076013;28;20230;-84
2023/02/13 07:30:34;;;;;;;6.03;5.45;;;10.10;99.90;;;;;;5076483;28;20227;-84
2023/02/13 07:33:02;;;;;;;6.82;6.10;;;10.10;99.90;;;;;;5075452;28;20277;-83
2023/02/13 07:35:29;;;;;;;6.15;5.55;;;10.20;99.90;;;;;;5076428;28;20244;-77
2023/02/13 07:37:59;;;;;;;7.85;7.05;;;10.20;99.90;;;;;;5075597;28;20794;-83
2023/02/13 07:40:26;;;;;;;7.20;6.50;;;10.20;99.90;;;;;;5076086;28;20570;-84
2023/02/13 07:42:53;;;;;;;7.60;6.75;;;10.10;99.90;;;;;;5075397;28;20254;-78
2023/02/13 07:45:20;;;;;;;7.43;6.63;;;10.20;99.90;;;;;;5077533;28;20231;-83
2023/02/13 07:47:48;;;;;;;8.77;7.07;;;10.20;99.90;;;;;;5075907;28;20227;-78
2023/02/13 07:50:16;;;;;;;10.60;8.48;;;10.20;99.90;;;;;;5069936;28;20254;-83
2023/02/13 07:52:43;;;;;;;11.85;9.32;;;10.20;99.90;;;;;;5080766;28;20233;-83
2023/02/13 07:55:11;;;;;;;11.18;9.25;;;10.20;99.90;;;;;;5075706;28;20224;-78
2023/02/13 07:57:38;;;;;;;8.10;7.30;;;10.20;99.90;;;;;;5075508;28;20226;-77
2023/02/13 08:00:06;;;;;;;10.52;8.93;;;10.20;99.90;;;;;;5078109;28;20228;-83
2023/02/13 08:02:33;;;;;;;10.32;9.15;;;10.20;99.90;;;;;;5081331;28;20235;-83
2023/02/13 08:05:05;;;;;;;9.50;8.50;;;10.30;99.90;;;;;;5081562;28;20610;-82
2023/02/13 08:07:35;;;;;;;9.13;8.02;;;10.30;99.90;;;;;;5079751;28;20239;-83
2023/02/13 08:12:48;;;;;;;6.97;5.75;;;10.30;99.90;;;;;;5079554;28;20227;-77
2023/02/13 08:15:15;;;;;;;7.53;6.10;;;10.30;99.90;;;;;;5080584;28;20239;-83
2023/02/13 08:17:43;;;;;;;9.00;8.10;;;10.30;99.90;;;;;;5085310;28;20228;-81
2023/02/13 08:20:15;;;;;;;8.02;7.25;;;10.30;99.90;;;;;;5080381;28;20286;-84
2023/02/13 08:22:45;;;;;;;8.57;6.95;;;10.30;99.90;;;;;;5074512;28;20232;-83
2023/02/13 08:25:17;;;;;;;9.00;7.25;;;10.30;99.90;;;;;;5074526;28;20224;-83
2023/02/13 08:27:44;;;;;;;7.05;6.20;;;10.30;99.90;;;;;;5074990;28;20228;-84
2023/02/13 08:30:14;;;;;;;7.75;6.45;;;10.40;99.90;;;;;;5073815;28;20256;-83
2023/02/13 08:32:44;;;;;;;8.13;7.22;;;10.40;99.90;;;;;;5074509;28;20584;-83
2023/02/13 08:35:12;;;;;;;7.40;6.28;;;10.40;99.90;;;;;;5073920;28;20224;-77
2023/02/13 08:37:39;;;;;;;14.43;7.68;;;10.40;99.90;;;;;;5064191;28;20230;-83
2023/02/13 08:40:09;;;;;;;6.65;5.78;;;10.40;99.90;;;;;;5073953;28;20235;-76
2023/02/13 08:42:39;;;;;;;7.88;6.80;;;10.40;99.90;;;;;;5064476;28;20224;-76
2023/02/13 08:45:06;;;;;;;8.18;6.72;;;10.40;99.90;;;;;;5074645;28;20244;-83
2023/02/13 08:47:33;;;;;;;7.90;6.95;;;10.40;99.90;;;;;;5065673;28;20340;-78
2023/02/13 08:50:00;;;;;;;7.20;6.57;;;10.40;99.90;;;;;;5074219;28;20301;-83
2023/02/13 08:52:29;;;;;;;6.95;6.20;;;10.50;99.90;;;;;;5073009;28;20220;-76
2023/02/13 08:54:56;;;;;;;7.43;6.72;;;10.40;99.90;;;;;;5074309;28;20673;-77
2023/02/13 08:57:26;;;;;;;7.28;5.88;;;10.50;99.90;;;;;;5073568;28;20263;-82
2023/02/13 08:59:53;;;;;;;8.13;6.97;;;10.50;99.90;;;;;;5073999;28;20297;-78
2023/02/13 09:02:19;;;;;;;7.25;6.55;;;10.50;99.90;;;;;;5073542;28;20740;-76
2023/02/13 09:04:46;;;;;;;9.07;7.07;;;10.50;99.90;;;;;;5073254;28;20224;-76
2023/02/13 09:07:13;;;;;;;8.63;7.30;;;10.50;99.90;;;;;;5074126;28;20227;-84
2023/02/13 09:09:42;;;;;;;9.70;6.90;;;10.50;99.90;;;;;;5073772;28;20228;-83
2023/02/13 09:12:09;;;;;;;9.20;6.95;;;10.50;99.90;;;;;;5074150;28;20224;-83
2023/02/13 09:14:38;;;;;;;9.15;7.28;;;10.50;99.90;;;;;;5073355;28;20228;-76
2023/02/13 09:17:08;;;;;;;9.35;7.45;;;10.40;99.90;;;;;;5073310;28;20220;-76
2023/02/13 09:19:39;;;;;;;7.07;6.38;;;10.50;99.90;;;;;;5073341;28;20289;-76
2023/02/13 09:22:06;;;;;;;7.53;6.53;;;10.50;99.90;;;;;;5073358;28;20224;-76
2023/02/13 09:24:33;;;;;;;10.10;6.90;;;10.50;99.90;;;;;;5072933;28;20686;-76
2023/02/13 09:27:08;;;;;;;7.07;6.20;;;10.50;99.90;;;;;;5074125;28;20232;-84
2023/02/13 09:29:36;;;;;;;10.52;9.02;;;10.50;99.90;;;;;;5057095;28;20543;-82
2023/02/13 09:32:04;;;;;;;8.02;7.18;;;10.50;99.90;;;;;;5074314;28;20718;-83
2023/02/13 09:34:32;;;;;;;8.55;7.07;;;10.40;99.90;;;;;;5073083;28;20228;-83
2023/02/13 09:36:59;;;;;;;8.30;7.47;;;10.40;99.90;;;;;;5073939;28;20664;-85
2023/02/13 09:39:26;;;;;;;8.35;6.82;;;10.40;99.90;;;;;;5073950;28;20734;-76
2023/02/13 09:41:54;;;;;;;10.63;6.88;;;10.40;99.90;;;;;;5073045;28;20231;-76
2023/02/13 09:44:37;;;;;;;12.18;8.27;;;10.40;99.90;;;;;;5073320;28;20232;-76
2023/02/13 09:47:13;;;;;;;8.40;6.78;;;10.30;99.90;;;;;;5073870;28;20663;-76
2023/02/13 09:49:44;;;;;;;10.88;8.25;;;10.30;99.90;;;;;;5073048;28;20723;-76
2023/02/13 09:52:11;;;;;;;11.20;8.52;;;10.30;99.90;;;;;;5074546;28;20250;-76
2023/02/13 09:54:39;;;;;;;11.70;9.63;;;10.30;99.90;;;;;;5073245;28;20684;-84
2023/02/13 09:57:16;;;;;;;8.27;7.47;;;10.30;99.90;;;;;;5073583;28;20228;-76
2023/02/13 09:59:57;;;;;;;8.73;7.80;;;10.30;99.90;;;;;;5073084;28;20638;-76
2023/02/13 10:02:37;;;;;;;12.40;9.80;;;10.20;99.90;;;;;;5084119;28;20220;-83
2023/02/13 10:05:17;;;;;;;9.52;8.05;;;10.20;99.90;;;;;;5075781;28;20226;-76
2023/02/13 10:07:51;;;;;;;10.73;9.00;;;10.20;99.90;;;;;;5078220;28;20232;-76
2023/02/13 10:10:30;;;;;;;11.65;9.60;;;10.20;99.90;;;;;;5076605;28;20314;-77
2023/02/13 10:13:18;;;;;;;12.02;10.05;;;10.20;99.90;;;;;;5077401;28;20558;-76
2023/02/13 10:15:52;;;;;;;13.30;8.80;;;10.20;99.90;;;;;;5075733;28;20224;-77
2023/02/13 10:18:23;;;;;;;13.27;10.32;;;10.20;99.90;;;;;;5087147;28;20215;-84
2023/02/13 10:20:53;;;;;;;11.15;9.52;;;10.20;99.90;;;;;;5088120;28;20227;-83
2023/02/13 10:23:26;;;;;;;11.30;8.77;;;10.20;99.90;;;;;;5076664;28;20251;-77
2023/02/13 10:25:58;;;;;;;16.05;9.80;;;10.20;99.90;;;;;;5072472;28;20224;-76
2023/02/13 10:28:34;;;;;;;11.88;10.07;;;10.20;99.90;;;;;;5073141;28;20224;-76
2023/02/13 10:31:07;;;;;;;12.15;9.48;;;10.20;99.90;;;;;;5072634;28;20227;-84
2023/02/13 10:33:41;;;;;;;13.05;9.45;;;10.30;99.90;;;;;;5073513;28;20220;-76
2023/02/13 10:36:16;;;;;;;10.60;9.45;;;10.20;99.90;;;;;;5076054;28;20227;-76
2023/02/13 10:38:46;;;;;;;12.20;9.93;;;10.30;99.90;;;;;;5076656;28;20568;-77
2023/02/13 10:41:25;;;;;;;10.65;9.05;;;10.30;99.90;;;;;;5076664;28;20220;-76
2023/02/13 10:44:06;;;;;;;8.48;7.63;;;10.30;99.90;;;;;;5078365;28;20297;-83
2023/02/13 10:46:43;;;;;;;12.93;10.07;;;10.30;99.90;;;;;;5077392;28;20281;-84
2023/02/13 10:49:46;;;;;;;11.88;10.38;;;10.40;99.90;;;;;;5078061;28;20227;-85
2023/02/13 10:52:23;;;;;;;10.30;9.18;;;10.40;99.90;;;;;;5076542;28;20223;-84
2023/02/13 10:55:09;;;;;;;12.40;10.70;;;10.40;99.90;;;;;;5076938;28;20680;-82
2023/02/13 10:57:57;;;;;;;9.60;8.63;;;10.40;99.90;;;;;;5077406;28;20220;-83
2023/02/13 11:00:38;;;;;;;9.13;7.75;;;10.40;99.90;;;;;;5077455;28;20340;-84
2023/02/13 11:03:18;;;;;;;14.18;10.45;;;10.40;99.90;;;;;;5076156;28;20224;-76
2023/02/13 11:05:46;;;;;;;13.80;10.90;;;10.40;99.90;;;;;;5076311;28;20223;-83
2023/02/13 11:08:20;;;;;;;12.65;10.02;;;10.50;99.90;;;;;;5076676;28;20216;-84
2023/02/13 11:10:49;;;;;;;12.77;9.63;;;10.50;99.90;;;;;;5075447;28;20278;-77
2023/02/13 11:13:19;;;;;;;14.82;10.35;;;10.50;99.90;;;;;;5076714;28;20542;-84
2023/02/13 11:15:59;;;;;;;12.32;10.32;;;10.40;99.90;;;;;;5075886;28;20224;-78
2023/02/13 11:18:29;;;;;;;15.20;11.63;;;10.50;99.90;;;;;;5076553;28;20658;-77
2023/02/13 11:21:02;;;;;;;10.90;9.43;;;10.50;99.90;;;;;;5077108;28;20547;-84
2023/02/13 11:23:47;;;;;;;19.17;11.30;;;10.40;99.90;;;;;;5077183;28;20227;-77
2023/02/13 11:26:22;;;;;;;14.23;10.63;;;10.40;99.90;;;;;;5075244;28;20639;-83
2023/02/13 11:28:53;;;;;;;13.55;11.40;;;10.50;99.90;;;;;;5076958;28;20234;-84
2023/02/13 11:31:27;;;;;;;17.05;12.05;;;10.40;99.90;;;;;;5077745;28;20224;-77
2023/02/13 11:33:56;;;;;;;14.07;11.25;;;10.50;99.90;;;;;;5075744;28;20228;-77
2023/02/13 11:36:27;;;;;;;16.42;13.30;;;10.50;99.90;;;;;;5075601;28;20588;-77
2023/02/13 11:39:03;;;;;;;17.33;12.15;;;10.50;99.90;;;;;;5076993;28;20224;-83
2023/02/13 11:41:42;;;;;;;15.80;12.40;;;10.50;99.90;;;;;;5079424;28;20672;-77
2023/02/13 11:44:24;;;;;;;15.05;11.48;;;10.50;99.90;;;;;;5095466;28;20231;-83
2023/02/13 11:46:53;;;;;;;15.82;13.40;;;10.50;99.90;;;;;;5102849;28;20694;-77
2023/02/13 11:49:24;;;;;;;13.85;12.35;;;10.50;99.90;;;;;;5098906;28;20296;-77
2023/02/13 11:51:53;;;;;;;13.90;11.23;;;10.50;99.90;;;;;;5092482;28;20247;-84
2023/02/13 11:54:27;;;;;;;16.48;12.50;;;10.50;99.90;;;;;;5082644;28;20541;-83
2023/02/13 11:56:56;;;;;;;14.50;12.20;;;10.50;99.90;;;;;;5091879;28;20215;-84
2023/02/13 11:59:24;;;;;;;14.75;11.68;;;10.50;99.90;;;;;;5102264;28;20247;-83
2023/02/13 12:02:14;;;;;;;16.20;13.70;;;10.50;99.90;;;;;;5080517;28;20227;-83
2023/02/13 12:04:43;;;;;;;13.90;11.13;;;10.50;99.90;;;;;;5097240;28;20319;-83
2023/02/13 12:07:17;;;;;;;15.20;11.95;;;10.60;99.90;;;;;;5097728;28;20216;-76
2023/02/13 12:09:46;;;;;;;14.90;11.48;;;10.60;99.90;;;;;;5092608;28;20223;-83
2023/02/13 12:12:23;;;;;;;16.05;11.57;;;10.60;99.90;;;;;;5075675;28;20620;-77
2023/02/13 12:14:50;;;;;;;20.42;15.93;;;10.60;99.90;;;;;;5093966;28;20238;-84
2023/02/13 12:17:21;;;;;;;18.52;14.88;;;10.60;99.90;;;;;;5102798;28;20231;-78
2023/02/13 12:19:53;;;;;;;18.20;14.05;;;10.60;99.90;;;;;;5076983;28;20232;-77
2023/02/13 12:22:44;;;;;;;16.23;13.00;;;10.60;99.90;;;;;;5088426;28;20246;-84
2023/02/13 12:25:59;;;;;;;16.08;12.45;;;10.70;99.90;;;;;;5104687;28;20220;-78
2023/02/13 12:28:37;;;;;;;16.42;13.32;;;10.70;99.90;;;;;;5054628;28;20246;-83
2023/02/13 12:31:27;;;;;;;16.42;13.02;;;10.70;99.90;;;;;;5098337;28;20242;-77
2023/02/13 12:34:17;;;;;;;19.45;12.38;;;10.70;99.90;;;;;;5087733;28;20220;-78
2023/02/13 12:36:58;;;;;;;17.02;14.50;;;10.70;99.90;;;;;;5094791;28;20227;-77
2023/02/13 12:39:31;;;;;;;16.92;12.50;;;10.70;99.90;;;;;;5081766;28;20240;-83
2023/02/13 12:42:17;;;;;;;16.63;12.82;;;10.70;99.90;;;;;;5094485;28;20235;-77
2023/02/13 12:45:00;;;;;;;15.90;12.88;;;10.70;99.90;;;;;;5094462;28;20223;-77
2023/02/13 12:47:30;;;;;;;19.08;12.52;;;10.70;99.90;;;;;;5085397;28;20276;-78
2023/02/13 12:50:18;;;;;;;21.67;15.40;;;10.60;99.90;;;;;;5077181;28;20312;-76
2023/02/13 12:53:01;;;;;;;14.75;11.88;;;10.60;99.90;;;;;;5080286;28;20265;-77
2023/02/13 12:55:55;;;;;;;22.95;14.88;;;10.70;99.90;;;;;;5078269;28;20231;-77
2023/02/13 12:58:53;;;;;;;16.92;13.43;;;10.70;99.90;;;;;;5065623;28;20371;-76
2023/02/13 13:01:28;;;;;;;23.55;15.50;;;10.60;99.90;;;;;;5071353;28;20232;-80
2023/02/13 13:04:10;;;;;;;17.05;14.00;;;10.60;99.90;;;;;;5073144;28;20723;-81
2023/02/13 13:06:51;;;;;;;19.63;14.00;;;10.60;99.90;;;;;;5087314;28;20299;-77
2023/02/13 13:10:02;;;;;;;18.48;13.70;;;10.60;99.90;;;;;;5071308;28;20277;-77
2023/02/13 13:12:42;;;;;;;19.05;15.63;;;10.60;99.90;;;;;;5001179;28;20225;-76
2023/02/13 13:15:17;;;;;;;17.85;13.13;;;10.60;99.90;;;;;;5009907;28;20236;-77
2023/02/13 13:17:59;;;;;;;16.30;14.55;;;10.60;99.90;;;;;;5047177;28;20252;-77
2023/02/13 13:20:43;;;;;;;14.90;11.82;;;10.60;99.90;;;;;;5062169;28;20227;-77
2023/02/13 13:23:16;;;;;;;15.80;12.88;;;10.60;99.90;;;;;;5086753;28;20208;-77
2023/02/13 13:25:55;;;;;;;17.05;13.00;;;10.60;99.90;;;;;;5072514;28;20220;-81
2023/02/13 13:28:25;;;;;;;16.50;12.88;;;10.60;99.90;;;;;;5073142;28;20236;-80
2023/02/13 13:30:57;;;;;;;15.60;13.50;;;10.60;99.90;;;;;;5075131;28;20224;-81
2023/02/13 13:33:27;;;;;;;17.40;12.82;;;10.60;99.90;;;;;;5093276;28;20226;-81
2023/02/13 13:36:02;;;;;;;17.45;12.93;;;10.60;99.90;;;;;;5077946;28;20307;-81
2023/02/13 13:38:40;;;;;;;16.85;12.80;;;10.60;99.90;;;;;;5072644;28;20939;-77
2023/02/13 13:41:15;;;;;;;18.50;13.13;;;10.60;99.90;;;;;;5078880;28;20298;-76
2023/02/13 13:43:58;;;;;;;19.52;14.75;;;10.60;99.90;;;;;;5087066;28;20238;-77
2023/02/13 13:46:36;;;;;;;18.65;13.75;;;10.60;99.90;;;;;;5086999;28;20231;-77